KBCB/BCB METAR and TAF weather

Enter ICAO airport designator
Station Type Date Time Source
KBCB METAR 2018/07/21 11:35 UTC NOAA

KBCB 211135Z AUTO 10005KT 10SM BKN013 BKN025 OVC090 20/18 A3001 RMK AO2 T02000179


Station Type Date Time Source
KBCB Decoded METAR 2018/07/21 11:35 UTC NOAA

Virginia Tech Airport, VA, United States (KBCB) 37-13N 080-25W
Jul 21, 2018 - 07:35 AM EDT / 2018.07.21 1135 UTC
Wind: from the E (100 degrees) at 6 MPH (5 KT):0
Visibility: 10 mile(s):0
Sky conditions: overcast
Temperature: 68.0 F (20.0 C)
Dew Point: 64.2 F (17.9 C)
Relative Humidity: 87%
Pressure (altimeter): 30.01 in. Hg (1016 hPa)
ob: KBCB 211135Z AUTO 10005KT 10SM BKN013 BKN025 OVC090 20/18 A3001 RMK AO2 T02000179
cycle: 11

Station Type Date Time Source
KBCB TAF 2018/07/21 12:28 UTC NOAA

TAF KBCB 211126Z 2112/2212 14003KT P6SM SCT015 BKN035
FM211500 13004KT P6SM BKN045
FM212000 12005KT P6SM VCTS BKN040CB
FM220100 VRB03KT P6SM SCT015 BKN035
FM220500 00000KT P6SM BKN008


Example: see airport list